Latest Coastal Weather Observations for Wynyard

IDV60701

Issued at 11:01 am EDT Thursday 2 April 2015 (issued every 10 minutes, with the page automatically refreshed every 10 minutes)

About coastal observations | Map of coastal stations | Coastal observations for VIC | Marine services | Other Formats
Station Details ID: 091107 Name: WYNYARD AIRPORT Lat: -41.00 Lon: 145.73 Height: 12.0 m
Data from the previous 72 hours. | See also: Recent months at Wynyard
Date/Time
EDT
Temp

°C
Wind Pressure Rain
since 9am
mm
Weather Cloud Vis
km
Sea
Height
m
Swell
Dir
 
Speed
knots
Gust
knots
hPa Trend Height
m
Period
s
Dir
02/11:00am 11.6 SSW 15 23 1017.7 - 0.4 - Cloudy 10 - - - -
02/10:30am 10.8 SSW 16 27 1016.7 - 0.4 - Partly cloudy 10 - - - -
02/10:08am 10.5 SSW 15 26 1016.3 - 0.4 - Partly cloudy 10 - - - -
02/10:00am 10.1 SSW 17 24 1016.0 - 0.4 - Partly cloudy 10 - - - -
02/09:30am 10.4 SSW 18 28 1015.1 - 0.0 - Cloudy 10 - - - -
02/09:00am 10.2 SSW 17 28 1013.2 - 2.2 Recent precip. Cloudy 10 - - - -
02/08:30am 10.2 SSW 23 34 1012.0 - 1.8 - Partly cloudy 6 - - - -
02/08:00am 11.6 SSW 21 33 1010.7 - 0.6 - Cloudy 10 - - - -
02/07:30am 11.8 SSW 18 32 1010.1 - 0.6 - Partly cloudy 10 - - - -
02/07:00am 11.6 SSW 15 29 1010.1 - 0.6 - Partly cloudy 10 - - - -
02/06:33am 11.6 SW 17 28 1009.7 - 0.6 - Partly cloudy 10 - - - -
02/06:30am 11.4 SW 16 22 1009.7 - 0.6 - Partly cloudy 10 - - - -
02/06:00am 12.0 SSW 18 28 1009.2 - 0.6 Recent precip. Mostly cloudy 10 - - - -
02/05:30am 12.7 SW 15 25 1008.6 - 0.4 - Partly cloudy 10 - - - -
02/05:22am 13.0 SW 15 25 1008.3 - 0.4 - Partly cloudy 10 - - - -
02/05:00am 11.7 W 8 12 1008.2 - 0.4 - Partly cloudy 10 - - - -
02/04:30am 12.8 NW 5 6 1007.9 - 0.4 - Partly cloudy 10 - - - -
02/04:00am 12.1 W 4 6 1008.2 - 0.4 - Partly cloudy 10 - - - -
02/03:30am 12.7 WNW 6 8 1008.2 - 0.4 - - 10 - - - -
02/03:00am 12.9 W 5 5 1008.4 - 0.4 - Mostly clear 43 - - - -
02/02:30am 14.1 W 7 8 1008.7 - 0.4 - Partly cloudy 10 - - - -
02/02:00am 15.0 W 10 14 1008.7 - 0.4 - Cloudy 10 - - - -
02/01:30am 14.8 WSW 12 15 1008.1 - 0.4 - Partly cloudy 10 - - - -
02/01:00am 15.1 WSW 11 17 1008.4 - 0.4 - Partly cloudy 10 - - - -
02/12:30am 15.5 WSW 20 29 1008.1 - 0.2 - Partly cloudy 8 - - - -
02/12:25am 15.9 WNW 13 27 1008.9 - 0.2 - Partly cloudy 10 - - - -
02/12:00am 16.9 WNW 7 10 1008.2 - 0.0 - Mostly clear 33 - - - -
 
Date/Time
EDT
Temp

°C
Wind Pressure Rain
since 9am
mm
Weather Cloud Vis
km
Sea
Height
m
Swell
Dir
 
Speed
knots
Gust
knots
hPa Trend Height
m
Period
s
Dir
01/11:30pm 17.5 WNW 12 15 1008.7 - 0.0 - Partly cloudy 10 - - - -
01/11:00pm 16.4 NW 5 8 1009.4 - 0.0 - Partly cloudy 9 - - - -
01/10:30pm 15.8 W 4 5 1009.6 - 0.0 - Partly cloudy 7 - - - -
01/10:00pm 15.7 WSW 6 8 1009.9 - 0.0 - - 6 - - - -
01/09:30pm 15.9 W 6 7 1009.2 - 0.0 - - 7 - - - -
01/09:00pm 16.1 ESE 4 6 1008.5 - 0.0 - Cloudy 8 - - - -
01/08:30pm 15.8 WSW 3 5 1009.6 - 0.0 - Partly cloudy 8 - - - -
01/08:00pm 16.2 E 1 3 1009.5 - 0.0 - - 8 - - - -
01/07:30pm 16.5 SE 2 4 1009.4 - 0.0 - Partly cloudy 9 - - - -
01/07:00pm 16.8 ENE 2 5 1009.7 - 0.0 - - 10 - - - -
01/06:30pm 17.0 SE 4 4 1010.3 - 0.0 - Partly cloudy 10 - - - -
01/06:00pm 17.1 E 7 8 1010.3 - 0.0 - Cloudy 10 - - - -
01/05:30pm 17.6 E 7 9 1010.6 - 0.0 - Partly cloudy 10 - - - -
01/05:00pm 17.7 E 9 14 1010.4 - 0.0 - - 10 - - - -
01/04:30pm 18.1 E 8 12 1011.1 - 0.0 - - 10 - - - -
01/04:00pm 17.8 ENE 9 13 1011.7 - 0.0 - Partly cloudy 10 - - - -
01/03:30pm 18.5 E 10 14 1012.0 - 0.0 - Partly cloudy 10 - - - -
01/03:00pm 18.4 E 8 11 1012.6 - 0.0 - Mostly cloudy 10 - - - -
01/02:30pm 18.1 E 9 12 1013.0 - 0.0 - - 10 - - - -
01/02:21pm 18.1 E 10 14 1013.2 - 0.0 - Partly cloudy 10 - - - -
01/02:00pm 18.9 E 11 14 1013.6 - 0.0 - Partly cloudy 10 - - - -
01/01:33pm 18.4 E 9 13 1014.5 - 0.0 - Partly cloudy 10 - - - -
01/01:30pm 18.2 E 9 13 1014.6 - 0.0 - Partly cloudy 10 - - - -
01/01:29pm 18.2 E 10 13 1014.5 - 0.0 - Partly cloudy 10 - - - -
01/01:00pm 17.5 ESE 12 15 1015.0 - 0.0 - Partly cloudy 10 - - - -
01/12:30pm 17.7 E 10 14 1015.4 - 0.0 - Partly cloudy 10 - - - -
01/12:00pm 17.1 E 9 13 1016.2 - 0.0 - Cloudy 10 - - - -
01/11:30am 16.8 E 9 12 1016.3 - 0.0 - Cloudy 10 - - - -
01/11:00am 16.5 E 9 13 1017.0 - 0.0 - Cloudy 10 - - - -
01/10:30am 16.2 E 8 12 1017.3 - 0.0 - Cloudy 10 - - - -
01/10:00am 15.7 E 6 9 1017.8 - 0.0 - Cloudy 10 - - - -
01/09:30am 15.6 E 7 9 1017.9 - 0.0 - Cloudy 10 - - - -
01/09:00am 14.5 ESE 6 8 1017.9 - 0.0 - Cloudy 10 - - - -
01/08:30am 12.6 SW 3 4 1018.3 - 0.0 - Cloudy 10 - - - -
01/08:00am 12.0 WNW 4 5 1018.2 - 0.0 - Cloudy 10 - - - -
01/07:30am 11.4 WNW 3 5 1018.4 - 0.0 - Cloudy 10 - - - -
01/07:00am 11.2 W 4 5 1018.6 - 0.0 - Cloudy 10 - - - -
01/06:30am 10.8 WNW 4 5 1018.8 - 0.0 - Cloudy 10 - - - -
01/06:00am 10.4 W 5 5 1019.1 - 0.0 - Mostly cloudy 10 - - - -
01/05:30am 10.4 WNW 5 6 1019.4 - 0.0 - Cloudy 10 - - - -
01/05:14am 10.3 WNW 5 6 1019.4 - 0.0 - Cloudy 10 - - - -
01/05:00am 10.0 W 5 5 1019.5 - 0.0 - Cloudy 10 - - - -
01/04:46am 9.9 W 5 6 1019.7 - 0.0 - Cloudy 10 - - - -
01/04:30am 9.8 WNW 5 6 1019.9 - 0.0 - Partly cloudy 10 - - - -
01/04:11am 9.4 W 5 7 1020.1 - 0.0 - Cloudy 10 - - - -
01/04:00am 9.0 W 3 5 1020.1 - 0.0 - Partly cloudy 10 - - - -
01/03:30am 8.0 WNW 5 7 1020.7 - 0.0 - - 10 - - - -
01/03:00am 8.1 WNW 6 7 1021.2 - 0.0 - - 10 - - - -
01/02:30am 8.3 WNW 5 6 1021.5 - 0.0 - Partly cloudy 10 - - - -
01/02:00am 7.9 W 5 6 1021.8 - 0.0 - Partly cloudy 10 - - - -
01/01:30am 8.1 WNW 5 6 1022.0 - 0.0 - - 10 - - - -
01/01:00am 8.4 W 5 6 1022.1 - 0.0 - - 10 - - - -
01/12:30am 9.2 WSW 5 6 1022.2 - 0.0 - - 10 - - - -
01/12:26am 8.7 SW 5 6 1022.3 - 0.0 - - 10 - - - -
01/12:00am 8.2 WSW 4 5 1022.7 - 0.0 - - 5 - - - -
 
Date/Time
EDT
Temp

°C
Wind Pressure Rain
since 9am
mm
Weather Cloud Vis
km
Sea
Height
m
Swell
Dir
 
Speed
knots
Gust
knots
hPa Trend Height
m
Period
s
Dir
31/11:31pm 8.5 W 5 6 1022.9 - 0.0 - - 5 - - - -
31/11:30pm 8.4 W 5 5 1022.9 - 0.0 - - 6 - - - -
31/11:00pm 9.2 SW 3 5 1022.9 - 0.0 - - 10 - - - -
31/10:30pm 9.9 CALM 0 0 1023.2 - 0.0 - - 10 - - - -
31/10:00pm 10.3 WSW 3 5 1023.5 - 0.0 - Cloudy 10 - - - -
31/09:30pm 10.7 WNW 3 5 1023.5 - 0.0 - Partly cloudy 10 - - - -
31/09:00pm 11.4 WSW 4 6 1023.2 - 0.0 - Mostly clear 10 - - - -
31/08:30pm 12.1 WSW 5 6 1023.1 - 0.0 - Partly cloudy 10 - - - -
31/08:00pm 14.6 NW 5 7 1022.9 - 0.0 - Partly cloudy 10 - - - -
31/07:30pm 14.5 WNW 6 7 1022.6 - 0.0 - - 10 - - - -
31/07:00pm 15.5 WNW 7 8 1022.5 - 0.0 - - 10 - - - -
31/06:30pm 16.1 NW 8 10 1022.4 - 0.0 - - 10 - - - -
31/06:00pm 16.4 NW 10 14 1022.3 - 0.0 - Mostly clear 10 - - - -
31/05:30pm 17.3 NW 10 15 1022.2 - 0.0 - Partly cloudy 10 - - - -
31/05:00pm 17.2 NW 11 15 1022.2 - 0.0 - - 10 - - - -
31/04:30pm 17.6 NW 11 15 1022.6 - 0.0 - Partly cloudy 10 - - - -
31/04:00pm 17.6 NW 10 14 1023.0 - 0.0 - Partly cloudy 10 - - - -
31/03:30pm 18.2 NW 11 13 1023.1 - 0.0 - Cloudy 10 - - - -
31/03:00pm 18.7 NW 9 13 1023.5 - 0.0 - Mostly cloudy 10 - - - -
31/02:30pm 17.8 WNW 9 12 1023.8 - 0.0 - Cloudy 10 - - - -
31/02:00pm 17.2 W 10 13 1024.2 - 0.0 - Cloudy 10 - - - -
31/01:30pm 17.5 WNW 10 13 1024.6 - 0.0 - - - - - - -
31/01:00pm 17.1 NW 9 12 1024.8 - 0.0 - - - - - - -
31/12:30pm 16.9 W 7 9 1025.1 - 0.0 - - - - - - -
31/12:00pm 16.3 W 9 11 1025.5 - 0.0 - - - - - - -
31/11:30am 16.2 WSW 7 10 1025.6 - 0.0 - - - - - - -
31/11:00am 16.0 W 7 10 1025.8 - 0.0 - - - - - - -
31/10:30am 15.8 WSW 7 11 1025.8 - 0.0 - - - - - - -
31/10:00am 15.5 W 8 10 1025.9 - 0.0 - - - - - - -
31/09:30am 15.0 WSW 6 8 1025.9 - 0.0 - - - - - - -
31/09:00am 14.3 WSW 5 6 1025.7 - 0.0 - - - - - - -
31/08:30am 12.8 WNW 4 5 1025.6 - 0.0 - - - - - - -
31/08:00am 12.1 WNW 5 6 1025.6 - 0.0 - - - - - - -
31/07:30am 11.7 WNW 5 7 1025.1 - 0.0 - - - - - - -
31/07:00am 11.8 WNW 5 6 1024.9 - 0.0 - - - - - - -
31/06:30am 11.6 W 4 5 1024.7 - 0.0 - - - - - - -
31/06:00am 11.5 WNW 4 6 1024.4 - 0.0 - - - - - - -
31/05:30am 11.1 W 4 5 1024.3 - 0.0 - - - - - - -
31/05:00am 10.8 W 4 6 1024.1 - 0.0 - - - - - - -
31/04:30am 10.5 W 1 4 1024.2 - 0.0 - - - - - - -
31/04:00am 10.0 WSW 4 5 1024.4 - 0.0 - - - - - - -
31/03:30am 9.7 SW 4 5 1024.4 - 0.0 - - - - - - -
31/03:00am 9.8 SW 4 6 1024.5 - 0.0 - - - - - - -
31/02:30am 9.4 W 1 4 1024.6 - 0.0 - - - - - - -
31/02:00am 8.4 SW 4 6 1024.7 - 0.0 - - - - - - -
31/01:30am 8.3 W 5 6 1024.6 - 0.0 - - - - - - -
31/01:00am 8.6 WSW 5 6 1024.6 - 0.0 - - - - - - -
31/12:30am 8.3 SW 4 5 1024.6 - 0.0 - - - - - - -
31/12:00am 8.8 SW 5 6 1024.8 - 0.0 - - - - - - -
 
Date/Time
EDT
Temp

°C
Wind Pressure Rain
since 9am
mm
Weather Cloud Vis
km
Sea
Height
m
Swell
Dir
 
Speed
knots
Gust
knots
hPa Trend Height
m
Period
s
Dir
30/11:30pm 9.3 W 6 7 1024.9 - 0.0 - - - - - - -
30/11:00pm 9.6 WSW 5 6 1024.8 - 0.0 - - - - - - -
30/10:30pm 10.2 W 6 7 1024.8 - 0.0 - - 10 - - - -
30/10:00pm 12.6 W 6 7 1024.8 - 0.0 - - 10 - - - -
30/09:30pm 12.6 WSW 4 5 1024.8 - 0.0 - - 10 - - - -
30/09:00pm 14.4 WSW 8 14 1024.4 - 0.0 - Partly cloudy 10 - - - -
30/08:30pm 15.1 WSW 7 9 1024.4 - 0.0 - Cloudy 10 - - - -
30/08:00pm 15.5 W 11 18 1023.8 - 0.0 - Cloudy 10 - - - -
30/07:30pm 15.4 W 7 10 1023.4 - 0.0 - Cloudy 10 - - - -
30/07:00pm 15.5 WSW 8 13 1023.1 - 0.0 - Partly cloudy 10 - - - -
30/06:30pm 16.2 WSW 11 14 1022.5 - 0.0 - Partly cloudy 10 - - - -
30/06:00pm 17.1 W 17 24 1022.0 - 0.0 - Mostly clear 10 - - - -
30/05:30pm 17.6 W 20 26 1021.7 - 0.0 - Partly cloudy 10 - - - -
30/05:00pm 18.0 W 16 20 1021.5 - 0.0 - Partly cloudy 10 - - - -
30/04:30pm 18.2 W 18 26 1021.7 - 0.0 - Partly cloudy 10 - - - -
30/04:00pm 18.3 W 18 26 1021.4 - 0.0 - Cloudy 10 - - - -
30/03:30pm 17.9 WSW 12 19 1021.5 - 0.0 - Partly cloudy 10 - - - -
30/03:00pm 18.6 W 17 22 1021.7 - 0.0 - Cloudy 10 - - - -
30/02:48pm 17.7 W 16 26 1021.7 - 0.0 - Partly cloudy 10 - - - -
30/02:30pm 18.9 W 16 21 1021.6 - 0.0 - Partly cloudy 10 - - - -
30/02:00pm 19.4 WSW 15 21 1021.6 - 0.0 - Partly cloudy 10 - - - -
30/01:30pm 18.3 W 14 18 1021.9 - 0.0 - Partly cloudy 10 - - - -
30/01:00pm 18.3 W 14 19 1021.9 - 0.0 - Partly cloudy 10 - - - -
30/12:30pm 17.6 W 15 19 1022.1 - 0.0 - Cloudy 10 - - - -
30/12:00pm 17.4 W 16 20 1022.1 - 0.0 - Mostly cloudy 10 - - - -
30/11:30am 17.6 WSW 10 12 1022.1 - 0.0 - Partly cloudy 10 - - - -

Other Formats:

Comma delimited format used in spreadsheet applications
http://www.bom.gov.au/fwo/IDV60701/IDV60701.95957.axf

JavaScript Object Notation format (JSON) in row-major order
http://www.bom.gov.au/fwo/IDV60701/IDV60701.95957.json